Terminal Aerodrome Forecast
Issued by NWS

Home | Current Version | Previous Version | Text Only | Print | Product List | Glossary On
Versions: 1 2 3 4 5 6 7 8 9 10 11 12 13 14 15 16 17 18
000
FTUS42 KMLB 290533
TAFSUA
TAF
KSUA 290533Z 2906/3006 23005KT P6SM BKN250
     FM291400 27008KT P6SM VCSH SCT030 BKN060 BKN250
     FM291700 26010KT P6SM VCTS SCT030CB BKN050 BKN150
     FM300000 25006KT P6SM BKN080 BKN250=

USA.gov is the U.S. government's official web portal to all federal, state and local government web resources and services.